Time;durP1;ratioP1;P1;durP2;ratioP2;P2;SDS_P1;SDS_P2;PMS_P1;PMS_P2;Temp;Humidity;BMP_temperature;BMP_pressure;BME280_temperature;BME280_humidity;BME280_pressure;Samples;Min_cycle;Max_cycle;Signal;HPM_P1;HPM_P2
2023/09/22 00:00:37;;;;;;;4.72;0.55;;;;;;;;;;5047805;28;20103;-90
2023/09/22 00:03:07;;;;;;;5.57;0.70;;;;;;;;;;5028316;28;20054;-90
2023/09/22 00:05:39;;;;;;;1.92;0.40;;;;;;;;;;5047997;28;20062;-91
2023/09/22 00:08:07;;;;;;;9.80;0.80;;;;;;;;;;5036241;28;20050;-92
2023/09/22 00:10:34;;;;;;;8.93;1.10;;;;;;;;;;5035157;28;20104;-92
2023/09/22 00:13:02;;;;;;;4.75;0.60;;;;;;;;;;5034685;28;20096;-91
2023/09/22 00:15:29;;;;;;;0.40;0.32;;;;;;;;;;5034999;28;20095;-91
2023/09/22 00:17:57;;;;;;;0.30;0.30;;;;;;;;;;5035845;28;20049;-92
2023/09/22 00:20:24;;;;;;;1.63;0.30;;;;;;;;;;5034896;28;20053;-92
2023/09/22 00:22:52;;;;;;;2.15;0.20;;;;;;;;;;5034930;28;20076;-91
2023/09/22 00:25:22;;;;;;;0.50;0.20;;;;;;;;;;5034758;28;20049;-91
2023/09/22 00:27:49;;;;;;;0.55;0.20;;;;;;;;;;5034538;28;20049;-91
2023/09/22 00:30:17;;;;;;;0.47;0.20;;;;;;;;;;5034464;28;20056;-92
2023/09/22 00:32:44;;;;;;;2.42;0.20;;;;;;;;;;5032736;28;20072;-92
2023/09/22 00:35:14;;;;;;;0.63;0.40;;;;;;;;;;5034649;28;20053;-91
2023/09/22 00:37:41;;;;;;;3.33;0.35;;;;;;;;;;5034280;28;20067;-90
2023/09/22 00:40:09;;;;;;;0.30;0.30;;;;;;;;;;5034414;28;20053;-91
2023/09/22 00:42:36;;;;;;;0.80;0.20;;;;;;;;;;5034135;28;20076;-92
2023/09/22 00:45:04;;;;;;;0.35;0.30;;;;;;;;;;5034296;28;20053;-92
2023/09/22 00:47:31;;;;;;;0.43;0.30;;;;;;;;;;5034464;28;20045;-91
2023/09/22 00:49:59;;;;;;;1.55;0.93;;;;;;;;;;5035269;28;20116;-91
2023/09/22 00:52:27;;;;;;;0.65;0.30;;;;;;;;;;5035201;28;20049;-90
2023/09/22 00:54:54;;;;;;;3.67;0.73;;;;;;;;;;5035489;28;20405;-91
2023/09/22 00:57:22;;;;;;;7.72;0.70;;;;;;;;;;5030851;28;20053;-90
2023/09/22 00:59:50;;;;;;;1.70;0.50;;;;;;;;;;5049912;28;20053;-91
2023/09/22 01:02:18;;;;;;;2.00;0.60;;;;;;;;;;5033729;28;20143;-92
2023/09/22 01:04:45;;;;;;;1.42;0.52;;;;;;;;;;5056013;28;20053;-91
2023/09/22 01:07:12;;;;;;;1.13;0.60;;;;;;;;;;5038659;28;20482;-91
2023/09/22 01:09:41;;;;;;;0.77;0.45;;;;;;;;;;5048840;28;20513;-91
2023/09/22 01:12:09;;;;;;;1.55;0.43;;;;;;;;;;5034411;28;20133;-88
2023/09/22 01:14:36;;;;;;;1.75;0.38;;;;;;;;;;5033944;28;20092;-91
2023/09/22 01:17:04;;;;;;;0.68;0.50;;;;;;;;;;5033768;28;20057;-91
2023/09/22 01:19:31;;;;;;;1.15;0.82;;;;;;;;;;5033213;28;20080;-92
2023/09/22 01:21:59;;;;;;;3.25;0.80;;;;;;;;;;5026022;28;20079;-91
2023/09/22 01:24:26;;;;;;;2.40;0.70;;;;;;;;;;5029968;28;20137;-92
2023/09/22 01:26:54;;;;;;;2.30;0.52;;;;;;;;;;5049517;28;20506;-91
2023/09/22 01:29:21;;;;;;;1.90;0.60;;;;;;;;;;5034140;28;20057;-91
2023/09/22 01:31:48;;;;;;;0.50;0.50;;;;;;;;;;5033202;28;20135;-92
2023/09/22 01:34:16;;;;;;;5.68;0.80;;;;;;;;;;5033254;28;20053;-91
2023/09/22 01:36:43;;;;;;;3.45;0.70;;;;;;;;;;5033244;28;20535;-91
2023/09/22 01:39:14;;;;;;;2.38;0.77;;;;;;;;;;5033190;28;20099;-91
2023/09/22 01:41:42;;;;;;;1.15;0.93;;;;;;;;;;5032994;28;20465;-92
2023/09/22 01:44:10;;;;;;;1.25;0.80;;;;;;;;;;5033324;28;20462;-91
2023/09/22 01:46:38;;;;;;;1.95;1.10;;;;;;;;;;5033146;28;20059;-91
2023/09/22 01:49:05;;;;;;;1.00;1.00;;;;;;;;;;5049480;28;20107;-92
2023/09/22 01:51:33;;;;;;;3.00;1.27;;;;;;;;;;5033993;28;20046;-92
2023/09/22 01:54:00;;;;;;;1.08;1.08;;;;;;;;;;5033058;28;20406;-92
2023/09/22 01:56:27;;;;;;;4.75;1.10;;;;;;;;;;5033025;28;20491;-91
2023/09/22 01:58:54;;;;;;;1.13;1.00;;;;;;;;;;5033093;28;20468;-91
2023/09/22 02:01:22;;;;;;;1.13;1.02;;;;;;;;;;5049324;28;20140;-91
2023/09/22 02:03:49;;;;;;;2.22;0.70;;;;;;;;;;5032697;28;20559;-91
2023/09/22 02:06:17;;;;;;;2.72;0.80;;;;;;;;;;5032263;28;20057;-91
2023/09/22 02:08:44;;;;;;;1.27;0.88;;;;;;;;;;5033703;28;20477;-92
2023/09/22 02:11:12;;;;;;;3.28;1.17;;;;;;;;;;5033210;28;20128;-91
2023/09/22 02:13:40;;;;;;;0.90;0.90;;;;;;;;;;5032512;28;20103;-93
2023/09/22 02:16:07;;;;;;;1.10;0.60;;;;;;;;;;5032416;28;20061;-91
2023/09/22 02:18:36;;;;;;;1.45;0.70;;;;;;;;;;5032177;28;20058;-92
2023/09/22 02:21:06;;;;;;;1.58;1.13;;;;;;;;;;5031830;28;20053;-92
2023/09/22 02:23:35;;;;;;;6.72;1.13;;;;;;;;;;5032113;28;20509;-91
2023/09/22 02:26:06;;;;;;;3.83;1.60;;;;;;;;;;5032390;28;20050;-91
2023/09/22 02:28:34;;;;;;;6.85;1.60;;;;;;;;;;5032132;28;20107;-91
2023/09/22 02:31:02;;;;;;;4.63;1.35;;;;;;;;;;5031852;28;20103;-91
2023/09/22 02:33:30;;;;;;;7.90;1.30;;;;;;;;;;5032929;28;20053;-91
2023/09/22 02:35:59;;;;;;;3.05;1.40;;;;;;;;;;5040859;28;20490;-92
2023/09/22 02:38:26;;;;;;;3.03;1.35;;;;;;;;;;5048501;28;20128;-91
2023/09/22 02:40:54;;;;;;;4.18;1.33;;;;;;;;;;5032050;28;20132;-91
2023/09/22 02:43:21;;;;;;;2.35;1.30;;;;;;;;;;5032181;28;20115;-91
2023/09/22 02:45:48;;;;;;;2.40;1.30;;;;;;;;;;5031782;28;20336;-92
2023/09/22 02:48:16;;;;;;;3.08;1.33;;;;;;;;;;5026965;28;20407;-91
2023/09/22 02:50:45;;;;;;;4.80;1.52;;;;;;;;;;5038303;28;20045;-92
2023/09/22 02:53:12;;;;;;;1.30;1.20;;;;;;;;;;5031816;28;20095;-91
2023/09/22 02:55:40;;;;;;;3.85;1.20;;;;;;;;;;5031972;28;20080;-92
2023/09/22 02:58:08;;;;;;;1.75;0.90;;;;;;;;;;5031860;28;20073;-91
2023/09/22 03:00:36;;;;;;;2.97;0.95;;;;;;;;;;5031679;28;20053;-91
2023/09/22 03:03:04;;;;;;;1.20;1.10;;;;;;;;;;5031875;28;20057;-92
2023/09/22 03:05:31;;;;;;;1.05;1.05;;;;;;;;;;5032133;28;20439;-93
2023/09/22 03:07:58;;;;;;;1.10;1.10;;;;;;;;;;5032982;28;20107;-93
2023/09/22 03:10:26;;;;;;;3.30;1.38;;;;;;;;;;5031801;28;20454;-93
2023/09/22 03:12:53;;;;;;;4.32;0.93;;;;;;;;;;5032646;28;20049;-92
2023/09/22 03:15:21;;;;;;;1.25;1.20;;;;;;;;;;5031444;28;20144;-92
2023/09/22 03:17:49;;;;;;;0.90;0.90;;;;;;;;;;5030663;28;20049;-92
2023/09/22 03:20:17;;;;;;;0.88;0.88;;;;;;;;;;5032575;28;20067;-91
2023/09/22 03:22:45;;;;;;;1.15;0.98;;;;;;;;;;5031758;28;20499;-93
2023/09/22 03:25:14;;;;;;;3.40;1.02;;;;;;;;;;5048287;28;20045;-91
2023/09/22 03:27:42;;;;;;;2.05;1.17;;;;;;;;;;5029773;28;20561;-91
2023/09/22 03:30:11;;;;;;;4.55;1.27;;;;;;;;;;5032754;28;20060;-91
2023/09/22 03:32:39;;;;;;;2.33;1.20;;;;;;;;;;5031647;28;20057;-91
2023/09/22 03:35:07;;;;;;;1.73;1.15;;;;;;;;;;5031732;28;20069;-91
2023/09/22 03:37:36;;;;;;;4.45;1.13;;;;;;;;;;5031522;28;20144;-92
2023/09/22 03:40:13;;;;;;;3.60;1.20;;;;;;;;;;5030752;28;20072;-91
2023/09/22 03:42:43;;;;;;;2.22;1.25;;;;;;;;;;5050004;28;20050;-92
2023/09/22 03:45:12;;;;;;;4.75;1.50;;;;;;;;;;5035321;28;20477;-91
2023/09/22 03:47:40;;;;;;;2.47;1.30;;;;;;;;;;5035215;28;20045;-91
2023/09/22 03:50:08;;;;;;;1.88;1.42;;;;;;;;;;5035733;28;20077;-92
2023/09/22 03:52:36;;;;;;;1.85;1.00;;;;;;;;;;5036527;28;20057;-92
2023/09/22 03:55:05;;;;;;;0.80;0.80;;;;;;;;;;5045590;28;20053;-92
2023/09/22 03:57:32;;;;;;;1.15;1.00;;;;;;;;;;5050015;28;20049;-91
2023/09/22 04:00:00;;;;;;;1.63;1.40;;;;;;;;;;5036713;28;20049;-91
2023/09/22 04:02:28;;;;;;;2.85;1.42;;;;;;;;;;5037326;28;20041;-91
2023/09/22 04:04:56;;;;;;;3.00;1.10;;;;;;;;;;5034942;28;20053;-91
2023/09/22 04:07:24;;;;;;;2.10;1.02;;;;;;;;;;5035211;28;20418;-91
2023/09/22 04:09:51;;;;;;;2.67;1.27;;;;;;;;;;5034717;28;20528;-91
2023/09/22 04:12:19;;;;;;;1.85;1.42;;;;;;;;;;5051531;28;20053;-91
2023/09/22 04:14:46;;;;;;;4.10;1.10;;;;;;;;;;5035494;28;20552;-92
2023/09/22 04:17:14;;;;;;;3.08;1.58;;;;;;;;;;5035020;28;20061;-92
2023/09/22 04:19:41;;;;;;;5.97;1.40;;;;;;;;;;5034615;28;20103;-91
2023/09/22 04:22:11;;;;;;;1.40;1.30;;;;;;;;;;5034685;28;20055;-91
2023/09/22 04:24:47;;;;;;;4.95;1.27;;;;;;;;;;5035642;28;20046;-92
2023/09/22 04:27:14;;;;;;;6.65;1.20;;;;;;;;;;5034415;28;20072;-91
2023/09/22 04:29:42;;;;;;;2.35;1.30;;;;;;;;;;5034350;28;20139;-91
2023/09/22 04:32:09;;;;;;;4.18;1.23;;;;;;;;;;5034098;28;20045;-92
2023/09/22 04:34:38;;;;;;;1.73;1.20;;;;;;;;;;5034632;28;20045;-91
2023/09/22 04:37:05;;;;;;;3.20;1.27;;;;;;;;;;5034653;28;20046;-91
2023/09/22 04:39:33;;;;;;;3.53;1.42;;;;;;;;;;5034531;28;20049;-91
2023/09/22 04:42:02;;;;;;;3.70;1.55;;;;;;;;;;5034496;28;20053;-91
2023/09/22 04:44:30;;;;;;;2.97;1.27;;;;;;;;;;5034524;28;20052;-92
2023/09/22 04:46:59;;;;;;;2.95;1.23;;;;;;;;;;5026841;28;20065;-92
2023/09/22 04:49:27;;;;;;;1.90;1.80;;;;;;;;;;5033955;28;20049;-92
2023/09/22 04:51:54;;;;;;;6.57;1.70;;;;;;;;;;5034665;28;20045;-92
2023/09/22 04:54:22;;;;;;;5.68;1.45;;;;;;;;;;5034472;28;20409;-91
2023/09/22 04:56:51;;;;;;;4.05;1.90;;;;;;;;;;5034521;28;20452;-92
2023/09/22 04:59:18;;;;;;;3.28;1.65;;;;;;;;;;5034305;28;20073;-91
2023/09/22 05:01:46;;;;;;;2.22;2.03;;;;;;;;;;5034606;28;20053;-91
2023/09/22 05:04:13;;;;;;;2.00;1.90;;;;;;;;;;5034576;28;20136;-92
2023/09/22 05:06:44;;;;;;;2.38;1.50;;;;;;;;;;5034299;28;20474;-92
2023/09/22 05:09:11;;;;;;;4.05;1.73;;;;;;;;;;5050670;28;20478;-91
2023/09/22 05:11:38;;;;;;;4.07;1.58;;;;;;;;;;5034255;28;20398;-92
2023/09/22 05:14:06;;;;;;;3.95;1.67;;;;;;;;;;5030964;28;20053;-91
2023/09/22 05:16:33;;;;;;;2.42;2.22;;;;;;;;;;5046901;28;20061;-92
2023/09/22 05:19:00;;;;;;;6.78;1.90;;;;;;;;;;5033788;28;20508;-91
2023/09/22 05:21:28;;;;;;;1.60;1.50;;;;;;;;;;5034093;28;20103;-91
2023/09/22 05:23:55;;;;;;;5.85;2.90;;;;;;;;;;5033761;28;20065;-92
2023/09/22 05:26:22;;;;;;;3.97;2.22;;;;;;;;;;5030220;28;20053;-92
2023/09/22 05:28:50;;;;;;;4.18;2.55;;;;;;;;;;5049478;28;20132;-92
2023/09/22 05:31:19;;;;;;;8.70;4.88;;;;;;;;;;5033306;28;20496;-92
2023/09/22 05:33:46;;;;;;;5.32;2.40;;;;;;;;;;5033727;28;20406;-93
2023/09/22 05:36:14;;;;;;;3.58;1.80;;;;;;;;;;5033825;28;20053;-93
2023/09/22 05:38:41;;;;;;;23.05;19.60;;;;;;;;;;5033888;28;20136;-92
2023/09/22 05:41:09;;;;;;;5.88;4.93;;;;;;;;;;5033365;28;20053;-92
2023/09/22 05:43:38;;;;;;;12.73;10.60;;;;;;;;;;5033500;28;20042;-92
2023/09/22 05:46:07;;;;;;;9.57;7.00;;;;;;;;;;5033513;28;20057;-92
2023/09/22 05:48:34;;;;;;;8.80;3.30;;;;;;;;;;5033188;28;20053;-92
2023/09/22 05:51:02;;;;;;;10.20;3.92;;;;;;;;;;5032965;28;20069;-92
2023/09/22 05:53:29;;;;;;;13.43;6.13;;;;;;;;;;5033292;28;20460;-92
2023/09/22 05:56:10;;;;;;;8.00;4.38;;;;;;;;;;5033207;28;20053;-91
2023/09/22 05:58:38;;;;;;;8.00;3.78;;;;;;;;;;5033061;28;20042;-91
2023/09/22 06:01:07;;;;;;;3.20;2.90;;;;;;;;;;5032372;28;20053;-92
2023/09/22 06:03:38;;;;;;;6.18;3.22;;;;;;;;;;5032845;28;20148;-92
2023/09/22 06:06:11;;;;;;;4.20;2.67;;;;;;;;;;5033566;28;20140;-91
2023/09/22 06:08:39;;;;;;;23.55;21.20;;;;;;;;;;5033112;28;20143;-93
2023/09/22 06:11:07;;;;;;;21.48;19.45;;;;;;;;;;5034357;28;20061;-91
2023/09/22 06:13:35;;;;;;;3.50;2.67;;;;;;;;;;5034450;28;20058;-93
2023/09/22 06:16:02;;;;;;;2.10;2.00;;;;;;;;;;5033439;28;20071;-93
2023/09/22 06:18:30;;;;;;;1.83;1.70;;;;;;;;;;5030595;28;20100;-92
2023/09/22 06:20:59;;;;;;;2.38;1.67;;;;;;;;;;5033076;28;20045;-94
2023/09/22 06:23:27;;;;;;;1.13;1.13;;;;;;;;;;5033042;28;20059;-94
2023/09/22 06:26:00;;;;;;;1.58;1.10;;;;;;;;;;5034232;28;20057;-93
2023/09/22 06:28:27;;;;;;;3.03;1.30;;;;;;;;;;5049942;28;20056;-93
2023/09/22 06:30:59;;;;;;;2.97;1.10;;;;;;;;;;5032054;28;20087;-92
2023/09/22 06:33:27;;;;;;;1.35;1.20;;;;;;;;;;5033100;28;20045;-92
2023/09/22 06:35:58;;;;;;;1.17;1.17;;;;;;;;;;5032480;28;20418;-91
2023/09/22 06:38:25;;;;;;;1.58;1.23;;;;;;;;;;5032990;28;20058;-93
2023/09/22 06:40:55;;;;;;;3.92;1.38;;;;;;;;;;5032554;28;20133;-92
2023/09/22 06:43:23;;;;;;;3.72;1.30;;;;;;;;;;5034260;28;20056;-92
2023/09/22 06:45:51;;;;;;;3.88;1.67;;;;;;;;;;5044766;28;20049;-92
2023/09/22 06:48:22;;;;;;;2.35;1.40;;;;;;;;;;5052067;28;20032;-90
2023/09/22 06:50:53;;;;;;;4.03;1.60;;;;;;;;;;5033679;28;20092;-93
2023/09/22 06:53:24;;;;;;;7.90;2.05;;;;;;;;;;5034771;28;20457;-92
2023/09/22 06:56:09;;;;;;;4.82;1.55;;;;;;;;;;5032550;28;20057;-93
2023/09/22 06:58:37;;;;;;;3.80;1.80;;;;;;;;;;5034297;28;20049;-93
2023/09/22 07:01:09;;;;;;;7.00;2.15;;;;;;;;;;5034910;28;20126;-92
2023/09/22 07:03:38;;;;;;;2.55;1.35;;;;;;;;;;5030158;28;20057;-96
2023/09/22 07:06:09;;;;;;;2.55;0.98;;;;;;;;;;5027371;28;20053;-92
2023/09/22 07:08:36;;;;;;;1.00;0.90;;;;;;;;;;5032134;28;20049;-92
2023/09/22 07:11:05;;;;;;;1.70;1.60;;;;;;;;;;5028542;28;20484;-92
2023/09/22 07:13:32;;;;;;;2.28;2.05;;;;;;;;;;5047912;28;20056;-94
2023/09/22 07:16:00;;;;;;;1.95;1.75;;;;;;;;;;5028483;28;20053;-92
2023/09/22 07:18:28;;;;;;;2.75;1.40;;;;;;;;;;5038880;28;20048;-96
2023/09/22 07:20:56;;;;;;;1.05;0.95;;;;;;;;;;5038652;28;20053;-92
2023/09/22 07:23:24;;;;;;;7.30;1.20;;;;;;;;;;5037438;28;20053;-92
2023/09/22 07:26:01;;;;;;;3.88;0.90;;;;;;;;;;5035548;28;20057;-91
2023/09/22 07:28:29;;;;;;;1.83;1.00;;;;;;;;;;5038294;28;20049;-90
2023/09/22 07:30:59;;;;;;;1.10;0.88;;;;;;;;;;5035643;28;20053;-92
2023/09/22 07:33:32;;;;;;;0.70;0.70;;;;;;;;;;5053918;28;20132;-91
2023/09/22 07:36:00;;;;;;;2.85;1.42;;;;;;;;;;5033143;28;20107;-90
2023/09/22 07:38:29;;;;;;;1.35;0.80;;;;;;;;;;5050009;28;20049;-93
2023/09/22 07:40:58;;;;;;;0.68;0.68;;;;;;;;;;5038136;28;20053;-91
2023/09/22 07:43:29;;;;;;;0.80;0.73;;;;;;;;;;5032484;28;20538;-93
2023/09/22 07:46:03;;;;;;;2.50;0.90;;;;;;;;;;5052004;28;20056;-93
2023/09/22 07:48:32;;;;;;;0.73;0.73;;;;;;;;;;5036582;28;20053;-95
2023/09/22 07:51:00;;;;;;;3.55;0.90;;;;;;;;;;5035757;28;20053;-90
2023/09/22 07:53:28;;;;;;;0.73;0.60;;;;;;;;;;5032677;28;20049;-89
2023/09/22 07:55:59;;;;;;;1.52;0.70;;;;;;;;;;5053309;28;20107;-91
2023/09/22 07:58:27;;;;;;;2.17;0.88;;;;;;;;;;5036485;28;20478;-89
2023/09/22 08:00:54;;;;;;;2.42;0.90;;;;;;;;;;5035140;28;20045;-90
2023/09/22 08:03:22;;;;;;;1.35;0.70;;;;;;;;;;5036598;28;20453;-92
2023/09/22 08:05:50;;;;;;;2.50;0.85;;;;;;;;;;5036135;28;20095;-89
2023/09/22 08:08:17;;;;;;;3.20;0.93;;;;;;;;;;5035935;28;20564;-94
2023/09/22 08:10:45;;;;;;;0.98;0.60;;;;;;;;;;5036385;28;20507;-89
2023/09/22 08:13:12;;;;;;;1.27;0.82;;;;;;;;;;5035928;28;20057;-90
2023/09/22 08:15:40;;;;;;;1.38;0.80;;;;;;;;;;5035384;28;20057;-89
2023/09/22 08:18:10;;;;;;;2.45;0.88;;;;;;;;;;5034871;28;20068;-90
2023/09/22 08:20:38;;;;;;;1.95;0.80;;;;;;;;;;5034797;28;20568;-90
2023/09/22 08:23:05;;;;;;;3.50;1.00;;;;;;;;;;5035739;28;20049;-90
2023/09/22 08:25:34;;;;;;;1.08;0.80;;;;;;;;;;5050589;28;20045;-89
2023/09/22 08:28:02;;;;;;;1.70;0.80;;;;;;;;;;5035137;28;20138;-89
2023/09/22 08:30:30;;;;;;;0.70;0.70;;;;;;;;;;5035342;28;20136;-89
2023/09/22 08:32:58;;;;;;;0.57;0.55;;;;;;;;;;5034788;28;20460;-89
2023/09/22 08:35:26;;;;;;;1.33;0.70;;;;;;;;;;5034863;28;20079;-89
2023/09/22 08:37:54;;;;;;;1.33;0.70;;;;;;;;;;5036185;28;20058;-89
2023/09/22 08:40:21;;;;;;;1.70;0.65;;;;;;;;;;5034955;28;20057;-89
2023/09/22 08:42:51;;;;;;;1.88;0.90;;;;;;;;;;5034659;28;20081;-88
2023/09/22 08:45:20;;;;;;;2.97;0.90;;;;;;;;;;5051404;28;20091;-88
2023/09/22 08:47:49;;;;;;;1.27;0.98;;;;;;;;;;5034694;28;20414;-89
2023/09/22 08:50:17;;;;;;;4.68;2.05;;;;;;;;;;5035361;28;20559;-86
2023/09/22 08:52:46;;;;;;;3.40;1.25;;;;;;;;;;5034514;28;20504;-88
2023/09/22 08:55:14;;;;;;;4.38;2.13;;;;;;;;;;5035423;28;20053;-88
2023/09/22 08:57:44;;;;;;;5.72;2.10;;;;;;;;;;5034348;28;20056;-88
2023/09/22 09:00:20;;;;;;;4.10;1.80;;;;;;;;;;5034075;28;20148;-88
2023/09/22 09:02:49;;;;;;;3.53;1.13;;;;;;;;;;5034259;28;20490;-90
2023/09/22 09:05:20;;;;;;;2.55;1.13;;;;;;;;;;5030521;28;20111;-88
2023/09/22 09:07:48;;;;;;;1.23;0.77;;;;;;;;;;5048811;28;20045;-90
2023/09/22 09:10:24;;;;;;;4.32;1.00;;;;;;;;;;5050360;28;20084;-88
2023/09/22 09:12:52;;;;;;;2.78;0.80;;;;;;;;;;5033206;28;20050;-88
2023/09/22 09:15:21;;;;;;;1.67;0.80;;;;;;;;;;5034823;28;20041;-89
2023/09/22 09:18:02;;;;;;;2.20;0.52;;;;;;;;;;5033837;28;20053;-88
2023/09/22 09:20:34;;;;;;;1.33;0.68;;;;;;;;;;5034427;28;20066;-89
2023/09/22 09:23:20;;;;;;;1.65;0.60;;;;;;;;;;5028326;28;20498;-88
2023/09/22 09:25:54;;;;;;;0.70;0.50;;;;;;;;;;5033687;28;20474;-89
2023/09/22 09:28:22;;;;;;;1.48;0.70;;;;;;;;;;5050803;28;20405;-89
2023/09/22 09:30:57;;;;;;;0.50;0.50;;;;;;;;;;5033890;28;20056;-88
2023/09/22 09:33:26;;;;;;;5.90;0.80;;;;;;;;;;5051466;28;20041;-90
2023/09/22 09:35:54;;;;;;;1.65;0.90;;;;;;;;;;5034944;28;20112;-88
2023/09/22 09:38:24;;;;;;;0.60;0.60;;;;;;;;;;5039894;28;20103;-88
2023/09/22 09:40:51;;;;;;;1.33;0.73;;;;;;;;;;5037268;28;20050;-88
2023/09/22 09:43:20;;;;;;;2.22;0.50;;;;;;;;;;5050254;28;20125;-89
2023/09/22 09:45:49;;;;;;;2.50;0.60;;;;;;;;;;5034939;28;20084;-92
2023/09/22 09:48:18;;;;;;;2.33;0.70;;;;;;;;;;5034551;28;20486;-92
2023/09/22 09:50:47;;;;;;;2.15;0.75;;;;;;;;;;5031587;28;20049;-88
2023/09/22 09:53:37;;;;;;;3.95;0.82;;;;;;;;;;5034089;28;20144;-87
2023/09/22 09:56:05;;;;;;;2.00;0.93;;;;;;;;;;5030927;28;20147;-89
2023/09/22 09:58:34;;;;;;;0.70;0.70;;;;;;;;;;5031732;28;20095;-88
2023/09/22 10:01:05;;;;;;;3.50;1.00;;;;;;;;;;5034487;28;20049;-89
2023/09/22 10:03:35;;;;;;;2.00;0.80;;;;;;;;;;5034645;28;20053;-88
2023/09/22 10:06:09;;;;;;;1.42;0.90;;;;;;;;;;5033514;28;20046;-89
2023/09/22 10:08:39;;;;;;;4.18;0.60;;;;;;;;;;5032568;28;20056;-88
2023/09/22 10:11:08;;;;;;;3.03;0.70;;;;;;;;;;5032522;28;20136;-88
2023/09/22 10:13:36;;;;;;;2.40;0.70;;;;;;;;;;5033605;28;20045;-88
2023/09/22 10:16:04;;;;;;;1.50;0.60;;;;;;;;;;5033402;28;20103;-88
2023/09/22 10:18:51;;;;;;;6.30;1.00;;;;;;;;;;5049148;28;20551;-88
2023/09/22 10:21:33;;;;;;;1.90;0.80;;;;;;;;;;5020847;28;20137;-89
2023/09/22 10:24:23;;;;;;;0.40;0.40;;;;;;;;;;5040492;28;20064;-89
2023/09/22 10:26:54;;;;;;;2.72;0.70;;;;;;;;;;5033517;28;20050;-88
2023/09/22 10:29:36;;;;;;;0.63;0.60;;;;;;;;;;5033502;28;20050;-88
2023/09/22 10:32:26;;;;;;;0.75;0.63;;;;;;;;;;5033277;28;20132;-87
2023/09/22 10:34:54;;;;;;;1.58;0.47;;;;;;;;;;5033363;28;20409;-88
2023/09/22 10:37:26;;;;;;;1.58;0.60;;;;;;;;;;5033465;28;20486;-88
2023/09/22 10:39:55;;;;;;;1.20;0.73;;;;;;;;;;5032137;28;20060;-89
2023/09/22 10:42:23;;;;;;;0.60;0.57;;;;;;;;;;5032242;28;20056;-89
2023/09/22 10:44:58;;;;;;;1.75;0.68;;;;;;;;;;5033082;28;20068;-88
2023/09/22 10:47:27;;;;;;;2.92;0.63;;;;;;;;;;5033019;28;20053;-89
2023/09/22 10:49:55;;;;;;;0.50;0.40;;;;;;;;;;5048730;28;20077;-88
2023/09/22 10:52:22;;;;;;;3.72;0.80;;;;;;;;;;5033103;28;20049;-90
2023/09/22 10:54:49;;;;;;;2.25;0.60;;;;;;;;;;5032039;28;20080;-89
2023/09/22 10:57:24;;;;;;;0.60;0.43;;;;;;;;;;5032355;28;20095;-91
2023/09/22 10:59:51;;;;;;;0.90;0.50;;;;;;;;;;5032179;28;20106;-90
2023/09/22 11:02:26;;;;;;;0.40;0.40;;;;;;;;;;5032565;28;20049;-89
2023/09/22 11:04:55;;;;;;;0.75;0.52;;;;;;;;;;5032216;28;20052;-89
2023/09/22 11:07:36;;;;;;;1.08;0.65;;;;;;;;;;5032088;28;20498;-89
2023/09/22 11:10:04;;;;;;;3.95;0.80;;;;;;;;;;5023837;28;20465;-89
2023/09/22 11:12:32;;;;;;;1.00;0.80;;;;;;;;;;5033164;28;20115;-92
2023/09/22 11:15:01;;;;;;;1.75;0.60;;;;;;;;;;5033857;28;20050;-91
2023/09/22 11:17:42;;;;;;;0.50;0.50;;;;;;;;;;5033185;28;20057;-90
2023/09/22 11:20:12;;;;;;;1.20;0.93;;;;;;;;;;5025583;28;20213;-92
2023/09/22 11:22:41;;;;;;;0.82;0.40;;;;;;;;;;5032452;28;20053;-89
2023/09/22 11:25:11;;;;;;;1.75;0.40;;;;;;;;;;5032542;28;20133;-88
2023/09/22 11:27:49;;;;;;;0.52;0.40;;;;;;;;;;5029533;28;20050;-90
2023/09/22 11:30:19;;;;;;;0.60;0.60;;;;;;;;;;5031864;28;20073;-90
2023/09/22 11:32:47;;;;;;;0.30;0.30;;;;;;;;;;5031430;28;20164;-89
2023/09/22 11:35:39;;;;;;;0.70;0.63;;;;;;;;;;5032459;28;20123;-91
2023/09/22 11:38:27;;;;;;;0.82;0.50;;;;;;;;;;5025216;28;20477;-92
2023/09/22 11:41:01;;;;;;;1.17;0.40;;;;;;;;;;5031373;28;20050;-89
2023/09/22 11:43:29;;;;;;;1.92;0.60;;;;;;;;;;5033216;28;20099;-92
2023/09/22 11:46:16;;;;;;;0.82;0.40;;;;;;;;;;5032331;28;20154;-91
2023/09/22 11:48:57;;;;;;;0.32;0.32;;;;;;;;;;5032967;28;20050;-89
2023/09/22 11:51:43;;;;;;;1.13;1.00;;;;;;;;;;5032075;28;20045;-91
2023/09/22 11:54:12;;;;;;;0.50;0.50;;;;;;;;;;5025508;28;20053;-91
2023/09/22 11:56:42;;;;;;;2.05;0.60;;;;;;;;;;5033078;28;20050;-91
2023/09/22 11:59:13;;;;;;;1.60;0.40;;;;;;;;;;5031708;28;20123;-90
2023/09/22 12:01:41;;;;;;;1.35;0.40;;;;;;;;;;5035572;28;20061;-91
2023/09/22 12:04:12;;;;;;;0.70;0.60;;;;;;;;;;5035349;28;20045;-89
2023/09/22 12:06:42;;;;;;;1.05;0.45;;;;;;;;;;5033083;28;20495;-91
2023/09/22 12:09:13;;;;;;;1.50;0.55;;;;;;;;;;5035288;28;20053;-91
2023/09/22 12:11:41;;;;;;;1.50;0.57;;;;;;;;;;5035403;28;20049;-90
2023/09/22 12:14:12;;;;;;;1.33;0.60;;;;;;;;;;5035082;28;20055;-91
2023/09/22 12:16:40;;;;;;;8.38;0.70;;;;;;;;;;5036393;28;20061;-91
2023/09/22 12:19:08;;;;;;;1.27;0.32;;;;;;;;;;5035619;28;20498;-94
2023/09/22 12:21:36;;;;;;;3.13;0.60;;;;;;;;;;5033108;28;20077;-90
2023/09/22 12:24:04;;;;;;;1.75;0.40;;;;;;;;;;5036244;28;20512;-92
2023/09/22 12:26:32;;;;;;;0.40;0.40;;;;;;;;;;5039151;28;20132;-93
2023/09/22 12:29:05;;;;;;;1.42;0.40;;;;;;;;;;5040995;28;20050;-92
2023/09/22 12:31:33;;;;;;;0.82;0.68;;;;;;;;;;5035084;28;20045;-92
2023/09/22 12:34:00;;;;;;;1.33;0.65;;;;;;;;;;5052001;28;20045;-91
2023/09/22 12:36:29;;;;;;;0.98;0.60;;;;;;;;;;5035235;28;20054;-92
2023/09/22 12:38:57;;;;;;;0.50;0.50;;;;;;;;;;5036398;28;20049;-90
2023/09/22 12:41:24;;;;;;;1.08;0.50;;;;;;;;;;5034461;28;20046;-90
2023/09/22 12:43:51;;;;;;;1.20;0.60;;;;;;;;;;5035420;28;20063;-91
2023/09/22 12:46:19;;;;;;;3.30;0.90;;;;;;;;;;5035444;28;20490;-92
2023/09/22 12:48:46;;;;;;;1.45;0.50;;;;;;;;;;5033013;28;20399;-89
2023/09/22 12:51:13;;;;;;;1.67;0.50;;;;;;;;;;5031206;28;20065;-90
2023/09/22 12:53:41;;;;;;;3.15;0.70;;;;;;;;;;5048600;28;20547;-92
2023/09/22 12:56:08;;;;;;;0.93;0.73;;;;;;;;;;5035024;28;20049;-91
2023/09/22 12:58:35;;;;;;;0.57;0.45;;;;;;;;;;5034786;28;20045;-92
2023/09/22 13:01:04;;;;;;;0.73;0.55;;;;;;;;;;5030242;28;20053;-92
2023/09/22 13:03:33;;;;;;;0.50;0.50;;;;;;;;;;5034953;28;20053;-91
2023/09/22 13:06:08;;;;;;;0.77;0.43;;;;;;;;;;5027509;28;20052;-91
2023/09/22 13:08:37;;;;;;;0.85;0.40;;;;;;;;;;5027895;28;20041;-90
2023/09/22 13:11:05;;;;;;;0.90;0.60;;;;;;;;;;5034932;28;20045;-92
2023/09/22 13:13:33;;;;;;;0.38;0.38;;;;;;;;;;5035440;28;20056;-91
2023/09/22 13:16:02;;;;;;;0.93;0.50;;;;;;;;;;5034916;28;20417;-90
2023/09/22 13:18:29;;;;;;;0.57;0.57;;;;;;;;;;5034574;28;20060;-92
2023/09/22 13:20:57;;;;;;;0.60;0.52;;;;;;;;;;5034344;28;20497;-92
2023/09/22 13:23:24;;;;;;;1.23;0.63;;;;;;;;;;5034104;28;20103;-92
2023/09/22 13:25:51;;;;;;;0.60;0.60;;;;;;;;;;5034079;28;20060;-93
2023/09/22 13:28:19;;;;;;;1.52;0.52;;;;;;;;;;5034775;28;20410;-94
2023/09/22 13:30:52;;;;;;;1.52;0.47;;;;;;;;;;5034405;28;20053;-95
2023/09/22 13:33:21;;;;;;;0.40;0.40;;;;;;;;;;5050068;28;20486;-92
2023/09/22 13:35:49;;;;;;;1.75;0.60;;;;;;;;;;5034355;28;20045;-94
2023/09/22 13:38:17;;;;;;;0.88;0.60;;;;;;;;;;5034712;28;20049;-91
2023/09/22 13:40:44;;;;;;;0.55;0.50;;;;;;;;;;5033280;28;20045;-91
2023/09/22 13:43:12;;;;;;;0.47;0.40;;;;;;;;;;5034461;28;20050;-90
2023/09/22 13:45:40;;;;;;;2.28;0.50;;;;;;;;;;5033875;28;20045;-90
2023/09/22 13:48:10;;;;;;;2.13;0.50;;;;;;;;;;5041418;28;20050;-90
2023/09/22 13:50:39;;;;;;;0.60;0.40;;;;;;;;;;5033306;28;20133;-90
2023/09/22 13:53:08;;;;;;;0.60;0.40;;;;;;;;;;5033186;28;20095;-90
2023/09/22 13:55:36;;;;;;;0.90;0.60;;;;;;;;;;5033014;28;20064;-91
2023/09/22 13:58:04;;;;;;;0.38;0.38;;;;;;;;;;5041375;28;20049;-90
2023/09/22 14:00:31;;;;;;;0.55;0.55;;;;;;;;;;5029366;28;20494;-89
2023/09/22 14:02:59;;;;;;;1.02;0.50;;;;;;;;;;5041135;28;20084;-92
2023/09/22 14:05:28;;;;;;;1.20;0.70;;;;;;;;;;5033902;28;20057;-91
2023/09/22 14:07:55;;;;;;;0.85;0.60;;;;;;;;;;5032544;28;20052;-89
2023/09/22 14:10:24;;;;;;;1.40;0.55;;;;;;;;;;5033164;28;20041;-91
2023/09/22 14:12:51;;;;;;;0.93;0.63;;;;;;;;;;5033127;28;20574;-93
2023/09/22 14:15:19;;;;;;;0.93;0.50;;;;;;;;;;5033955;28;20048;-93
2023/09/22 14:17:48;;;;;;;0.40;0.40;;;;;;;;;;5034110;28;20065;-93
2023/09/22 14:20:16;;;;;;;2.58;0.43;;;;;;;;;;5032719;28;20103;-92
2023/09/22 14:22:43;;;;;;;2.50;0.47;;;;;;;;;;5033470;28;20049;-91
2023/09/22 14:25:11;;;;;;;1.20;0.50;;;;;;;;;;5032517;28;20052;-92
2023/09/22 14:27:42;;;;;;;0.90;0.40;;;;;;;;;;5033749;28;20099;-93
2023/09/22 14:30:11;;;;;;;0.65;0.40;;;;;;;;;;5033313;28;20072;-92
2023/09/22 14:32:38;;;;;;;0.50;0.50;;;;;;;;;;5033527;28;20050;-93
2023/09/22 14:35:06;;;;;;;0.90;0.50;;;;;;;;;;5033507;28;20060;-90
2023/09/22 14:37:34;;;;;;;1.88;0.50;;;;;;;;;;5032493;28;20077;-92
2023/09/22 14:40:03;;;;;;;2.08;0.65;;;;;;;;;;5032248;28;20512;-93
2023/09/22 14:42:31;;;;;;;1.20;0.50;;;;;;;;;;5032568;28;20072;-92
2023/09/22 14:44:59;;;;;;;0.60;0.40;;;;;;;;;;5025038;28;20080;-92
2023/09/22 14:47:27;;;;;;;0.90;0.45;;;;;;;;;;5033287;28;20045;-91
2023/09/22 14:49:54;;;;;;;1.45;0.60;;;;;;;;;;5031476;28;20156;-91
2023/09/22 14:52:21;;;;;;;1.08;0.50;;;;;;;;;;5028735;28;20060;-91
2023/09/22 14:54:49;;;;;;;0.50;0.50;;;;;;;;;;5031778;28;20056;-90